Time;durP1;ratioP1;P1;durP2;ratioP2;P2;SDS_P1;SDS_P2;PMS_P1;PMS_P2;Temp;Humidity;BMP_temperature;BMP_pressure;BME280_temperature;BME280_humidity;BME280_pressure;Samples;Min_cycle;Max_cycle;Signal;HPM_P1;HPM_P2
2023/09/06 00:01:23;;;;;;;;;;;;;;;;;;5091147;28;19922;-70
2023/09/06 00:08:47;;;;;;;;;;;;;;;;;;5091951;28;20240;-71
2023/09/06 00:11:13;;;;;;;;;;;;;;;;;;5091429;28;19998;-70
2023/09/06 00:13:40;;;;;;;;;;;;;;;;;;5090977;28;19908;-71
2023/09/06 00:16:07;;;;;;;;;;;;;;;;;;5091443;28;20341;-71
2023/09/06 00:18:33;;;;;;;;;;;;;;;;;;5091146;28;19908;-70
2023/09/06 00:25:09;;;;;;;;;;;;;;;;;;5091871;27;19917;-70
2023/09/06 00:27:35;;;;;;;;;;;;;;;;;;5091118;28;19994;-70
2023/09/06 00:30:01;;;;;;;;;;;;;;;;;;5091566;28;19954;-70
2023/09/06 00:32:27;;;;;;;;;;;;;;;;;;5091200;28;19915;-71
2023/09/06 00:44:56;;;;;;;;;;;;;;;;;;5112514;27;19919;-70
2023/09/06 00:47:22;;;;;;;;;;;;;;;;;;5111783;28;19999;-70
2023/09/06 00:49:48;;;;;;;;;;;;;;;;;;5111247;28;19908;-70
2023/09/06 00:52:16;;;;;;;;;;;;;;;;;;5111606;28;20272;-70
2023/09/06 00:54:42;;;;;;;;;;;;;;;;;;5111590;28;19914;-70
2023/09/06 00:57:08;;;;;;;;;;;;;;;;;;5111129;28;19908;-70
2023/09/06 01:01:18;;;;;;;;;;;;;;;;;;5091876;27;19919;-70
2023/09/06 01:03:44;;;;;;;;;;;;;;;;;;5091194;28;20342;-70
2023/09/06 01:13:05;;;;;;;;;;;;;;;;;;5091936;27;19923;-71
2023/09/06 01:16:47;;;;;;;;;;;;;;;;;;5091120;27;19940;-70
2023/09/06 01:19:13;;;;;;;;;;;;;;;;;;5091757;28;19916;-70
2023/09/06 01:21:39;;;;;;;;;;;;;;;;;;5091242;28;19908;-70
2023/09/06 01:24:14;;;;;;;;;;;;;;;;;;5091588;27;19922;-70
2023/09/06 01:26:40;;;;;;;;;;;;;;;;;;5091344;28;19991;-70
2023/09/06 01:30:47;;;;;;;;;;;;;;;;;;5132331;27;20014;-70
2023/09/06 01:33:16;;;;;;;;;;;;;;;;;;5132547;28;19919;-70
2023/09/06 01:38:12;;;;;;;;;;;;;;;;;;5091131;27;20232;-70
2023/09/06 01:42:22;;;;;;;;;;;;;;;;;;5071302;28;19917;-70
2023/09/06 01:47:25;;;;;;;;;;;;;;;;;;5091599;27;19916;-71
2023/09/06 01:57:52;;;;;;;;;;;;;;;;;;5092091;27;19923;-70
2023/09/06 02:01:43;;;;;;;;;;;;;;;;;;5112107;27;19916;-70
2023/09/06 02:06:10;;;;;;;;;;;;;;;;;;5111953;27;19916;-70
2023/09/06 02:08:39;;;;;;;;;;;;;;;;;;5111711;28;20010;-70
2023/09/06 02:11:06;;;;;;;;;;;;;;;;;;5111602;28;20372;-71
2023/09/06 02:13:32;;;;;;;;;;;;;;;;;;5109843;28;20431;-70
2023/09/06 02:20:58;;;;;;;;;;;;;;;;;;5091173;27;20273;-70
2023/09/06 02:24:50;;;;;;;;;;;;;;;;;;5092100;27;19923;-71
2023/09/06 02:27:16;;;;;;;;;;;;;;;;;;5091379;28;20357;-71
2023/09/06 02:30:54;;;;;;;;;;;;;;;;;;5112078;27;19916;-72
2023/09/06 02:33:20;;;;;;;;;;;;;;;;;;5111745;28;20004;-71
2023/09/06 02:35:46;;;;;;;;;;;;;;;;;;5111362;28;19961;-72
2023/09/06 02:39:55;;;;;;;;;;;;;;;;;;5092176;27;19922;-71
2023/09/06 02:42:21;;;;;;;;;;;;;;;;;;5091108;28;20444;-72
2023/09/06 02:45:49;;;;;;;;;;;;;;;;;;5091866;27;19921;-72
2023/09/06 02:48:18;;;;;;;;;;;;;;;;;;5090960;28;20261;-72
2023/09/06 02:51:56;;;;;;;;;;;;;;;;;;5071381;28;19916;-70
2023/09/06 02:54:22;;;;;;;;;;;;;;;;;;5069850;28;19959;-70
2023/09/06 02:58:47;;;;;;;;;;;;;;;;;;5112169;27;19916;-70
2023/09/06 03:02:16;;;;;;;;;;;;;;;;;;5091158;27;19920;-71
2023/09/06 03:04:42;;;;;;;;;;;;;;;;;;5091694;28;19919;-71
2023/09/06 03:09:35;;;;;;;;;;;;;;;;;;5111670;27;19916;-70
2023/09/06 03:12:29;;;;;;;;;;;;;;;;;;5092251;27;19916;-70
2023/09/06 03:16:42;;;;;;;;;;;;;;;;;;5071340;28;19923;-71
2023/09/06 03:19:10;;;;;;;;;;;;;;;;;;5071118;28;20016;-71
2023/09/06 03:22:16;;;;;;;;;;;;;;;;;;5071524;28;19923;-71
2023/09/06 03:24:43;;;;;;;;;;;;;;;;;;5070870;28;19913;-71
2023/09/06 03:27:09;;;;;;;;;;;;;;;;;;5070937;28;19996;-70
2023/09/06 03:29:38;;;;;;;;;;;;;;;;;;5071054;28;19963;-70
2023/09/06 03:32:04;;;;;;;;;;;;;;;;;;5070605;28;20384;-70
2023/09/06 03:36:24;;;;;;;;;;;;;;;;;;5174549;27;19918;-70
2023/09/06 03:41:24;;;;;;;;;;;;;;;;;;5091620;27;19916;-70
2023/09/06 03:43:53;;;;;;;;;;;;;;;;;;5091296;28;20012;-70
2023/09/06 03:48:26;;;;;;;;;;;;;;;;;;5153519;27;20002;-70
2023/09/06 03:58:53;;;;;;;;;;;;;;;;;;5071207;28;19923;-71
2023/09/06 04:04:23;;;;;;;;;;;;;;;;;;5092053;27;19922;-70
2023/09/06 04:06:48;;;;;;;;;;;;;;;;;;5091008;28;19913;-70
2023/09/06 04:09:17;;;;;;;;;;;;;;;;;;5091191;28;19946;-70
2023/09/06 04:11:43;;;;;;;;;;;;;;;;;;5091315;28;19916;-70
2023/09/06 04:17:30;;;;;;;;;;;;;;;;;;5091471;27;19912;-70
2023/09/06 04:20:18;;;;;;;;;;;;;;;;;;5091353;27;20402;-71
2023/09/06 04:22:45;;;;;;;;;;;;;;;;;;5091343;28;19995;-70
2023/09/06 04:25:11;;;;;;;;;;;;;;;;;;5091153;28;19908;-72
2023/09/06 04:27:37;;;;;;;;;;;;;;;;;;5090903;28;19915;-71
2023/09/06 04:30:03;;;;;;;;;;;;;;;;;;5091228;28;20296;-71
2023/09/06 04:32:29;;;;;;;;;;;;;;;;;;5089586;28;19963;-70
2023/09/06 04:36:54;;;;;;;;;;;;;;;;;;5130473;27;20435;-70
2023/09/06 04:40:32;;;;;;;;;;;;;;;;;;5069993;28;20405;-70
2023/09/06 04:43:37;;;;;;;;;;;;;;;;;;5091726;28;19919;-70
2023/09/06 04:46:49;;;;;;;;;;;;;;;;;;5112272;27;19950;-70
2023/09/06 04:49:15;;;;;;;;;;;;;;;;;;5110809;28;20389;-70
2023/09/06 04:54:13;;;;;;;;;;;;;;;;;;5089343;27;19917;-70
2023/09/06 04:57:46;;;;;;;;;;;;;;;;;;5150738;27;20378;-70
2023/09/06 05:00:23;;;;;;;;;;;;;;;;;;5151285;27;19917;-70
2023/09/06 05:02:49;;;;;;;;;;;;;;;;;;5151108;27;19913;-71
2023/09/06 05:06:14;;;;;;;;;;;;;;;;;;5091129;27;19916;-70
2023/09/06 05:08:41;;;;;;;;;;;;;;;;;;5090922;28;19956;-71
2023/09/06 05:11:07;;;;;;;;;;;;;;;;;;5090150;28;19913;-69
2023/09/06 05:13:33;;;;;;;;;;;;;;;;;;5091177;28;19908;-70
2023/09/06 05:15:58;;;;;;;;;;;;;;;;;;5090758;28;19916;-70
2023/09/06 05:18:24;;;;;;;;;;;;;;;;;;5090722;28;19908;-70
2023/09/06 05:21:48;;;;;;;;;;;;;;;;;;5065904;27;19939;-71
2023/09/06 05:24:49;;;;;;;;;;;;;;;;;;5103227;27;20303;-69
2023/09/06 05:27:52;;;;;;;;;;;;;;;;;;5095074;27;19930;-70
2023/09/06 05:34:10;;;;;;;;;;;;;;;;;;5125063;27;19915;-71
2023/09/06 05:36:36;;;;;;;;;;;;;;;;;;5129566;28;19912;-70
2023/09/06 05:42:34;;;;;;;;;;;;;;;;;;5102147;27;20295;-70
2023/09/06 05:46:31;;;;;;;;;;;;;;;;;;5097347;27;19930;-70
2023/09/06 05:48:57;;;;;;;;;;;;;;;;;;5106715;28;19912;-72
2023/09/06 05:51:23;;;;;;;;;;;;;;;;;;5104469;28;19981;-75
2023/09/06 05:57:44;;;;;;;;;;;;;;;;;;5076914;27;19946;-70
2023/09/06 06:00:15;;;;;;;;;;;;;;;;;;5062886;28;19912;-68
2023/09/06 06:05:35;;;;;;;;;;;;;;;;;;5087085;27;19927;-72
2023/09/06 06:08:16;;;;;;;;;;;;;;;;;;5119129;27;19971;-72
2023/09/06 06:10:42;;;;;;;;;;;;;;;;;;5141035;27;19911;-74
2023/09/06 06:13:11;;;;;;;;;;;;;;;;;;5123298;27;19983;-70
2023/09/06 06:15:37;;;;;;;;;;;;;;;;;;5148690;27;19907;-72
2023/09/06 06:21:49;;;;;;;;;;;;;;;;;;5118695;27;19926;-69
2023/09/06 06:24:15;;;;;;;;;;;;;;;;;;5091926;28;19913;-70
2023/09/06 06:26:41;;;;;;;;;;;;;;;;;;5094210;28;19912;-69
2023/09/06 06:29:07;;;;;;;;;;;;;;;;;;5089977;28;19909;-70
2023/09/06 06:32:00;;;;;;;;;;;;;;;;;;5077526;27;19917;-69
2023/09/06 06:34:26;;;;;;;;;;;;;;;;;;5069422;28;19920;-69
2023/09/06 06:39:10;;;;;;;;;;;;;;;;;;5086059;27;19931;-69
2023/09/06 06:42:06;;;;;;;;;;;;;;;;;;5087375;27;19924;-68
2023/09/06 06:44:49;;;;;;;;;;;;;;;;;;5068330;28;20454;-68
2023/09/06 06:47:15;;;;;;;;;;;;;;;;;;5067773;28;19916;-68
2023/09/06 06:53:06;;;;;;;;;;;;;;;;;;5108441;27;19920;-67
2023/09/06 06:55:32;;;;;;;;;;;;;;;;;;5085212;28;19916;-68
2023/09/06 06:57:58;;;;;;;;;;;;;;;;;;5073061;28;19924;-67
2023/09/06 07:00:24;;;;;;;;;;;;;;;;;;5091498;28;19928;-68
2023/09/06 07:02:50;;;;;;;;;;;;;;;;;;5097654;28;19926;-69
2023/09/06 07:05:16;;;;;;;;;;;;;;;;;;5101681;28;19920;-68
2023/09/06 07:07:42;;;;;;;;;;;;;;;;;;5104791;28;19914;-69
2023/09/06 07:10:08;;;;;;;;;;;;;;;;;;5105785;28;19908;-72
2023/09/06 07:12:35;;;;;;;;;;;;;;;;;;5103440;28;19927;-69
2023/09/06 07:18:12;;;;;;;;;;;;;;;;;;5083788;27;19940;-69
2023/09/06 07:21:35;;;;;;;;;;;;;;;;;;5076681;27;20267;-68
2023/09/06 07:24:02;;;;;;;;;;;;;;;;;;5080414;28;19917;-68
2023/09/06 07:26:28;;;;;;;;;;;;;;;;;;5078617;28;20003;-68
2023/09/06 07:32:48;;;;;;;;;;;;;;;;;;5094605;27;19924;-70
2023/09/06 07:35:16;;;;;;;;;;;;;;;;;;5077451;28;19919;-70
2023/09/06 07:37:43;;;;;;;;;;;;;;;;;;5067480;28;19966;-67
2023/09/06 07:40:09;;;;;;;;;;;;;;;;;;5065989;28;19917;-68
2023/09/06 07:42:35;;;;;;;;;;;;;;;;;;5055184;28;20342;-68
2023/09/06 07:45:01;;;;;;;;;;;;;;;;;;5061576;28;19974;-68
2023/09/06 07:50:58;;;;;;;;;;;;;;;;;;5116535;27;19916;-68
2023/09/06 07:53:25;;;;;;;;;;;;;;;;;;5101501;28;19912;-68
2023/09/06 07:55:51;;;;;;;;;;;;;;;;;;5096880;28;19919;-68
2023/09/06 07:58:17;;;;;;;;;;;;;;;;;;5098484;28;19916;-68
2023/09/06 08:00:43;;;;;;;;;;;;;;;;;;5096842;28;19916;-68
2023/09/06 08:03:09;;;;;;;;;;;;;;;;;;5094584;28;19912;-68
2023/09/06 08:05:35;;;;;;;;;;;;;;;;;;5099945;28;19912;-67
2023/09/06 08:08:22;;;;;;;;;;;;;;;;;;5107694;27;19920;-68
2023/09/06 08:10:48;;;;;;;;;;;;;;;;;;5106860;28;20408;-68
2023/09/06 08:13:14;;;;;;;;;;;;;;;;;;5106975;28;19908;-69
2023/09/06 08:16:42;;;;;;;;;;;;;;;;;;5102839;27;19921;-67
2023/09/06 08:19:08;;;;;;;;;;;;;;;;;;5088053;28;19913;-67
2023/09/06 08:21:34;;;;;;;;;;;;;;;;;;5089842;28;19912;-68
2023/09/06 08:24:02;;;;;;;;;;;;;;;;;;5086381;28;19920;-68
2023/09/06 08:26:28;;;;;;;;;;;;;;;;;;5088885;28;19913;-69
2023/09/06 08:28:54;;;;;;;;;;;;;;;;;;5090473;28;20003;-68
2023/09/06 08:31:20;;;;;;;;;;;;;;;;;;5090338;28;19965;-68
2023/09/06 08:33:46;;;;;;;;;;;;;;;;;;5101105;28;19915;-68
2023/09/06 08:36:12;;;;;;;;;;;;;;;;;;5089853;28;19920;-67
2023/09/06 08:39:46;;;;;;;;;;;;;;;;;;5089200;28;19919;-68
2023/09/06 08:42:12;;;;;;;;;;;;;;;;;;5082832;28;19912;-68
2023/09/06 08:44:38;;;;;;;;;;;;;;;;;;5080176;28;20315;-68
2023/09/06 08:47:05;;;;;;;;;;;;;;;;;;5075062;28;19913;-70
2023/09/06 08:49:31;;;;;;;;;;;;;;;;;;5089861;28;19998;-68
2023/09/06 08:52:22;;;;;;;;;;;;;;;;;;5107119;27;19934;-68
2023/09/06 08:54:51;;;;;;;;;;;;;;;;;;5088949;28;19912;-68
2023/09/06 08:57:17;;;;;;;;;;;;;;;;;;5076504;28;19995;-68
2023/09/06 08:59:43;;;;;;;;;;;;;;;;;;5096176;28;20280;-69
2023/09/06 09:02:13;;;;;;;;;;;;;;;;;;5083356;28;19916;-71
2023/09/06 09:04:42;;;;;;;;;;;;;;;;;;5087354;28;20002;-72
2023/09/06 09:07:08;;;;;;;;;;;;;;;;;;5087507;28;19913;-69
2023/09/06 09:12:03;;;;;;;;;;;;;;;;;;5150380;27;19930;-69
2023/09/06 09:14:29;;;;;;;;;;;;;;;;;;5146269;27;19990;-69
2023/09/06 09:16:55;;;;;;;;;;;;;;;;;;5145004;27;19934;-70
2023/09/06 09:19:21;;;;;;;;;;;;;;;;;;5149342;27;20461;-70
2023/09/06 09:21:58;;;;;;;;;;;;;;;;;;5086578;27;19967;-69
2023/09/06 09:26:53;;;;;;;;;;;;;;;;;;5105233;27;19923;-71
2023/09/06 09:29:22;;;;;;;;;;;;;;;;;;5092956;28;19978;-68
2023/09/06 09:31:48;;;;;;;;;;;;;;;;;;5093286;28;19912;-68
2023/09/06 09:34:14;;;;;;;;;;;;;;;;;;5106181;28;19969;-68
2023/09/06 09:38:22;;;;;;;;;;;;;;;;;;5088274;27;19921;-68
2023/09/06 09:40:48;;;;;;;;;;;;;;;;;;5072140;28;20010;-69
2023/09/06 09:43:14;;;;;;;;;;;;;;;;;;5067363;28;19917;-71
2023/09/06 09:45:41;;;;;;;;;;;;;;;;;;5079556;28;20352;-70
2023/09/06 09:48:07;;;;;;;;;;;;;;;;;;5068046;28;19913;-69
2023/09/06 09:50:34;;;;;;;;;;;;;;;;;;5062484;28;19948;-69
2023/09/06 09:54:56;;;;;;;;;;;;;;;;;;5083799;28;19938;-67
2023/09/06 09:57:23;;;;;;;;;;;;;;;;;;5085886;28;19919;-67
2023/09/06 09:59:50;;;;;;;;;;;;;;;;;;5066390;28;19982;-67
2023/09/06 10:02:16;;;;;;;;;;;;;;;;;;5067869;28;19939;-66
2023/09/06 10:04:42;;;;;;;;;;;;;;;;;;5067347;28;20357;-66
2023/09/06 10:07:09;;;;;;;;;;;;;;;;;;5068439;28;19931;-66
2023/09/06 10:09:35;;;;;;;;;;;;;;;;;;5069407;28;20018;-67
2023/09/06 10:12:01;;;;;;;;;;;;;;;;;;5068510;28;19935;-66
2023/09/06 10:14:27;;;;;;;;;;;;;;;;;;5068278;28;19917;-65
2023/09/06 10:16:53;;;;;;;;;;;;;;;;;;5068002;28;19935;-66
2023/09/06 10:19:19;;;;;;;;;;;;;;;;;;5067297;28;19920;-66
2023/09/06 10:21:46;;;;;;;;;;;;;;;;;;5069223;28;19917;-68
2023/09/06 10:24:12;;;;;;;;;;;;;;;;;;5101862;28;19913;-66
2023/09/06 10:26:40;;;;;;;;;;;;;;;;;;5068351;28;20443;-67
2023/09/06 10:29:06;;;;;;;;;;;;;;;;;;5068505;28;19909;-66
2023/09/06 10:31:36;;;;;;;;;;;;;;;;;;5069664;28;20272;-66
2023/09/06 10:34:02;;;;;;;;;;;;;;;;;;5065611;28;19920;-66
2023/09/06 10:36:29;;;;;;;;;;;;;;;;;;5064731;28;19947;-67
2023/09/06 10:38:57;;;;;;;;;;;;;;;;;;5065355;28;19967;-66
2023/09/06 10:42:51;;;;;;;;;;;;;;;;;;5107176;27;19939;-67
2023/09/06 10:45:17;;;;;;;;;;;;;;;;;;5106493;28;19958;-68
2023/09/06 10:50:06;;;;;;;;;;;;;;;;;;5110301;27;19916;-68
2023/09/06 10:52:32;;;;;;;;;;;;;;;;;;5103180;28;19916;-67
2023/09/06 10:54:58;;;;;;;;;;;;;;;;;;5110574;28;19915;-67
2023/09/06 10:57:25;;;;;;;;;;;;;;;;;;5109235;28;19909;-68
2023/09/06 10:59:51;;;;;;;;;;;;;;;;;;5109658;28;19969;-67
2023/09/06 11:02:17;;;;;;;;;;;;;;;;;;5109254;28;20364;-66
2023/09/06 11:04:43;;;;;;;;;;;;;;;;;;5111371;28;19919;-67
2023/09/06 11:07:12;;;;;;;;;;;;;;;;;;5109834;28;20372;-67
2023/09/06 11:09:38;;;;;;;;;;;;;;;;;;5108458;28;20002;-67
2023/09/06 11:13:42;;;;;;;;;;;;;;;;;;5109147;27;19916;-71
2023/09/06 11:16:08;;;;;;;;;;;;;;;;;;5098915;28;19919;-70
2023/09/06 11:18:34;;;;;;;;;;;;;;;;;;5099697;28;19919;-69
2023/09/06 11:21:00;;;;;;;;;;;;;;;;;;5089487;28;19923;-70
2023/09/06 11:23:30;;;;;;;;;;;;;;;;;;5089500;28;20365;-67
2023/09/06 11:25:59;;;;;;;;;;;;;;;;;;5091867;28;19981;-66
2023/09/06 11:30:32;;;;;;;;;;;;;;;;;;5110442;27;19922;-66
2023/09/06 11:32:58;;;;;;;;;;;;;;;;;;5110494;28;19912;-67
2023/09/06 11:35:26;;;;;;;;;;;;;;;;;;5109513;28;19912;-68
2023/09/06 11:37:52;;;;;;;;;;;;;;;;;;5110770;28;19912;-68
2023/09/06 11:41:22;;;;;;;;;;;;;;;;;;5130285;27;19912;-67
2023/09/06 11:43:51;;;;;;;;;;;;;;;;;;5131469;28;19933;-67
2023/09/06 11:46:17;;;;;;;;;;;;;;;;;;5131637;28;20360;-66
2023/09/06 11:48:43;;;;;;;;;;;;;;;;;;5130463;28;19912;-66
2023/09/06 11:51:11;;;;;;;;;;;;;;;;;;5097495;28;19951;-66
2023/09/06 11:53:37;;;;;;;;;;;;;;;;;;5094019;28;19916;-67
2023/09/06 11:56:06;;;;;;;;;;;;;;;;;;5109831;28;19969;-67
2023/09/06 11:58:34;;;;;;;;;;;;;;;;;;5110580;28;20003;-67
2023/09/06 12:01:01;;;;;;;;;;;;;;;;;;5092692;28;19916;-68
2023/09/06 12:06:00;;;;;;;;;;;;;;;;;;5108434;27;19920;-66
2023/09/06 12:08:27;;;;;;;;;;;;;;;;;;5107647;28;19916;-67
2023/09/06 12:10:54;;;;;;;;;;;;;;;;;;5106390;28;20315;-67
2023/09/06 12:13:20;;;;;;;;;;;;;;;;;;5098321;28;20680;-67
2023/09/06 12:15:46;;;;;;;;;;;;;;;;;;5088817;28;19955;-69
2023/09/06 12:18:12;;;;;;;;;;;;;;;;;;5088500;28;20025;-66
2023/09/06 12:20:38;;;;;;;;;;;;;;;;;;5109073;28;19915;-67
2023/09/06 12:23:05;;;;;;;;;;;;;;;;;;5110246;28;19912;-66
2023/09/06 12:25:31;;;;;;;;;;;;;;;;;;5110568;28;20359;-68
2023/09/06 12:27:57;;;;;;;;;;;;;;;;;;5107520;28;19941;-68
2023/09/06 12:30:25;;;;;;;;;;;;;;;;;;5109329;28;20322;-67
2023/09/06 12:32:51;;;;;;;;;;;;;;;;;;5110629;28;19908;-67
2023/09/06 12:35:17;;;;;;;;;;;;;;;;;;5108893;28;19945;-67
2023/09/06 12:37:43;;;;;;;;;;;;;;;;;;5090994;28;19913;-68
2023/09/06 12:40:15;;;;;;;;;;;;;;;;;;5090216;28;19909;-67
2023/09/06 12:42:41;;;;;;;;;;;;;;;;;;5095249;28;19919;-67
2023/09/06 12:45:08;;;;;;;;;;;;;;;;;;5090974;28;19916;-68
2023/09/06 12:47:34;;;;;;;;;;;;;;;;;;5108740;28;19912;-69
2023/09/06 12:50:02;;;;;;;;;;;;;;;;;;5110221;28;19908;-69
2023/09/06 12:52:29;;;;;;;;;;;;;;;;;;5110529;28;19958;-68
2023/09/06 12:54:55;;;;;;;;;;;;;;;;;;5110354;28;19908;-69
2023/09/06 12:57:21;;;;;;;;;;;;;;;;;;5092654;28;19914;-70
2023/09/06 12:59:47;;;;;;;;;;;;;;;;;;5092218;28;19912;-68
2023/09/06 13:02:13;;;;;;;;;;;;;;;;;;5107214;28;19965;-70
2023/09/06 13:04:39;;;;;;;;;;;;;;;;;;5097274;28;19925;-72
2023/09/06 13:07:05;;;;;;;;;;;;;;;;;;5088543;28;19995;-71
2023/09/06 13:09:31;;;;;;;;;;;;;;;;;;5088476;28;19908;-72
2023/09/06 13:11:57;;;;;;;;;;;;;;;;;;5086975;28;19954;-72
2023/09/06 13:14:23;;;;;;;;;;;;;;;;;;5087979;28;19908;-72
2023/09/06 13:16:48;;;;;;;;;;;;;;;;;;5075231;28;19912;-73
2023/09/06 13:19:14;;;;;;;;;;;;;;;;;;5074891;28;19908;-72
2023/09/06 13:21:40;;;;;;;;;;;;;;;;;;5074683;28;20007;-72
2023/09/06 13:24:06;;;;;;;;;;;;;;;;;;5075622;28;20261;-72
2023/09/06 13:26:32;;;;;;;;;;;;;;;;;;5074979;28;19999;-72
2023/09/06 13:28:58;;;;;;;;;;;;;;;;;;5074814;28;19913;-72
2023/09/06 13:31:24;;;;;;;;;;;;;;;;;;5074294;28;19937;-72
2023/09/06 13:33:50;;;;;;;;;;;;;;;;;;5075607;28;19963;-73
2023/09/06 13:36:18;;;;;;;;;;;;;;;;;;5075219;28;19908;-73
2023/09/06 13:38:44;;;;;;;;;;;;;;;;;;5075584;28;19951;-72
2023/09/06 13:41:10;;;;;;;;;;;;;;;;;;5076117;28;19915;-73
2023/09/06 13:43:36;;;;;;;;;;;;;;;;;;5075619;28;20396;-72
2023/09/06 13:46:02;;;;;;;;;;;;;;;;;;5074771;28;20380;-72
2023/09/06 13:48:28;;;;;;;;;;;;;;;;;;5075914;28;19947;-72
2023/09/06 13:50:54;;;;;;;;;;;;;;;;;;5075419;28;19957;-72
2023/09/06 13:53:20;;;;;;;;;;;;;;;;;;5075776;28;19909;-72
2023/09/06 13:55:46;;;;;;;;;;;;;;;;;;5074465;28;20455;-73
2023/09/06 13:58:13;;;;;;;;;;;;;;;;;;5075362;28;20307;-73
2023/09/06 14:00:39;;;;;;;;;;;;;;;;;;5075674;28;19948;-73
2023/09/06 14:03:05;;;;;;;;;;;;;;;;;;5075618;28;20441;-73
2023/09/06 14:05:33;;;;;;;;;;;;;;;;;;5075525;28;20384;-72
2023/09/06 14:07:58;;;;;;;;;;;;;;;;;;5075615;28;19912;-72
2023/09/06 14:10:24;;;;;;;;;;;;;;;;;;5075159;28;20330;-72
2023/09/06 14:12:50;;;;;;;;;;;;;;;;;;5075519;28;20272;-72
2023/09/06 14:15:16;;;;;;;;;;;;;;;;;;5075325;28;20297;-71
2023/09/06 14:17:42;;;;;;;;;;;;;;;;;;5074999;28;19931;-72
2023/09/06 14:20:09;;;;;;;;;;;;;;;;;;5075378;28;19981;-72
2023/09/06 14:22:35;;;;;;;;;;;;;;;;;;5075251;28;19908;-72
2023/09/06 14:26:56;;;;;;;;;;;;;;;;;;5092004;27;19916;-71
2023/09/06 14:29:22;;;;;;;;;;;;;;;;;;5091285;28;20456;-71
2023/09/06 14:31:48;;;;;;;;;;;;;;;;;;5090765;28;19909;-71
2023/09/06 14:34:15;;;;;;;;;;;;;;;;;;5091050;28;19930;-71
2023/09/06 14:36:41;;;;;;;;;;;;;;;;;;5091139;28;19908;-72
2023/09/06 14:39:07;;;;;;;;;;;;;;;;;;5090693;28;19914;-72
2023/09/06 14:41:33;;;;;;;;;;;;;;;;;;5091006;28;19908;-72
2023/09/06 14:43:59;;;;;;;;;;;;;;;;;;5091002;28;19908;-73
2023/09/06 14:46:25;;;;;;;;;;;;;;;;;;5090078;28;19917;-71
2023/09/06 14:48:51;;;;;;;;;;;;;;;;;;5089101;28;19909;-72
2023/09/06 14:51:17;;;;;;;;;;;;;;;;;;5088984;28;19909;-72
2023/09/06 14:53:43;;;;;;;;;;;;;;;;;;5089606;28;19950;-71
2023/09/06 14:56:09;;;;;;;;;;;;;;;;;;5089250;28;19912;-71
2023/09/06 14:58:35;;;;;;;;;;;;;;;;;;5089827;28;19915;-71
2023/09/06 15:01:01;;;;;;;;;;;;;;;;;;5088711;28;20323;-71
2023/09/06 15:03:27;;;;;;;;;;;;;;;;;;5089469;28;19908;-71
2023/09/06 15:05:53;;;;;;;;;;;;;;;;;;5087324;28;20350;-72
2023/09/06 15:08:19;;;;;;;;;;;;;;;;;;5086483;28;20300;-72
2023/09/06 15:10:45;;;;;;;;;;;;;;;;;;5088527;28;19954;-71
2023/09/06 15:13:14;;;;;;;;;;;;;;;;;;5088358;28;19951;-71
2023/09/06 15:15:42;;;;;;;;;;;;;;;;;;5086543;28;19995;-72
2023/09/06 15:18:08;;;;;;;;;;;;;;;;;;5088555;28;19916;-72
2023/09/06 15:20:34;;;;;;;;;;;;;;;;;;5088289;28;19908;-71
2023/09/06 15:23:36;;;;;;;;;;;;;;;;;;5089336;27;19923;-71
2023/09/06 15:26:02;;;;;;;;;;;;;;;;;;5089797;28;20303;-71
2023/09/06 15:28:28;;;;;;;;;;;;;;;;;;5089978;28;19934;-71
2023/09/06 15:30:54;;;;;;;;;;;;;;;;;;5089614;28;19926;-71
2023/09/06 15:33:20;;;;;;;;;;;;;;;;;;5089536;28;19909;-72
2023/09/06 15:35:46;;;;;;;;;;;;;;;;;;5089355;28;19919;-73
2023/09/06 15:38:12;;;;;;;;;;;;;;;;;;5090489;28;19915;-72
2023/09/06 15:40:38;;;;;;;;;;;;;;;;;;5089580;28;20365;-73
2023/09/06 15:43:04;;;;;;;;;;;;;;;;;;5090381;28;19970;-72
2023/09/06 15:45:30;;;;;;;;;;;;;;;;;;5090798;28;19909;-73
2023/09/06 15:47:58;;;;;;;;;;;;;;;;;;5089853;28;19931;-70
2023/09/06 15:50:24;;;;;;;;;;;;;;;;;;5087920;28;19912;-70
2023/09/06 15:53:53;;;;;;;;;;;;;;;;;;5088479;28;19960;-72
2023/09/06 15:57:34;;;;;;;;;;;;;;;;;;5108283;27;19938;-70
2023/09/06 16:00:00;;;;;;;;;;;;;;;;;;5109375;28;20364;-71
2023/09/06 16:02:26;;;;;;;;;;;;;;;;;;5109209;28;19908;-71
2023/09/06 16:04:52;;;;;;;;;;;;;;;;;;5109147;28;20017;-72
2023/09/06 16:07:18;;;;;;;;;;;;;;;;;;5109942;28;19938;-71
2023/09/06 16:09:44;;;;;;;;;;;;;;;;;;5110890;28;19918;-71
2023/09/06 16:14:07;;;;;;;;;;;;;;;;;;5091298;28;19923;-70
2023/09/06 16:16:35;;;;;;;;;;;;;;;;;;5091206;28;19958;-71
2023/09/06 16:19:01;;;;;;;;;;;;;;;;;;5090871;28;19995;-71
2023/09/06 16:21:27;;;;;;;;;;;;;;;;;;5091393;28;19958;-71
2023/09/06 16:23:53;;;;;;;;;;;;;;;;;;5089290;28;20004;-72
2023/09/06 16:26:19;;;;;;;;;;;;;;;;;;5089387;28;20408;-71
2023/09/06 16:28:45;;;;;;;;;;;;;;;;;;5089445;28;19916;-71
2023/09/06 16:31:11;;;;;;;;;;;;;;;;;;5087018;28;19916;-71
2023/09/06 16:33:37;;;;;;;;;;;;;;;;;;5089906;28;19917;-71
2023/09/06 16:38:01;;;;;;;;;;;;;;;;;;5090702;27;19917;-73
2023/09/06 16:40:27;;;;;;;;;;;;;;;;;;5090625;28;20011;-71
2023/09/06 16:42:53;;;;;;;;;;;;;;;;;;5090683;28;19913;-72
2023/09/06 16:45:19;;;;;;;;;;;;;;;;;;5090179;28;19909;-71
2023/09/06 16:47:46;;;;;;;;;;;;;;;;;;5089033;28;20379;-72
2023/09/06 16:50:12;;;;;;;;;;;;;;;;;;5090830;28;19912;-70
2023/09/06 16:52:38;;;;;;;;;;;;;;;;;;5089452;28;19978;-71
2023/09/06 16:55:04;;;;;;;;;;;;;;;;;;5090380;28;19975;-70
2023/09/06 16:57:30;;;;;;;;;;;;;;;;;;5090264;28;19920;-70
2023/09/06 16:59:56;;;;;;;;;;;;;;;;;;5090154;28;19936;-70
2023/09/06 17:02:23;;;;;;;;;;;;;;;;;;5089268;28;19909;-71
2023/09/06 17:04:49;;;;;;;;;;;;;;;;;;5089393;28;19909;-71
2023/09/06 17:08:35;;;;;;;;;;;;;;;;;;5090043;27;19913;-71
2023/09/06 17:11:05;;;;;;;;;;;;;;;;;;5088221;28;20003;-71
2023/09/06 17:13:31;;;;;;;;;;;;;;;;;;5087491;28;19970;-72
2023/09/06 17:15:57;;;;;;;;;;;;;;;;;;5088372;28;20004;-71
2023/09/06 17:18:24;;;;;;;;;;;;;;;;;;5089581;28;19913;-71
2023/09/06 17:20:50;;;;;;;;;;;;;;;;;;5088195;28;19908;-71
2023/09/06 17:23:16;;;;;;;;;;;;;;;;;;5087911;28;20359;-71
2023/09/06 17:27:54;;;;;;;;;;;;;;;;;;5090376;27;19934;-72
2023/09/06 17:30:21;;;;;;;;;;;;;;;;;;5089365;28;20364;-73
2023/09/06 17:33:01;;;;;;;;;;;;;;;;;;5088973;27;19916;-72
2023/09/06 17:35:27;;;;;;;;;;;;;;;;;;5086981;28;19916;-71
2023/09/06 17:39:19;;;;;;;;;;;;;;;;;;5049491;28;19924;-70
2023/09/06 17:41:47;;;;;;;;;;;;;;;;;;5050350;28;20293;-71
2023/09/06 17:44:13;;;;;;;;;;;;;;;;;;5050836;28;20370;-72
2023/09/06 17:46:41;;;;;;;;;;;;;;;;;;5050331;28;19913;-71
2023/09/06 17:49:08;;;;;;;;;;;;;;;;;;5050147;28;19909;-70
2023/09/06 17:51:34;;;;;;;;;;;;;;;;;;5050562;28;20003;-72
2023/09/06 17:54:43;;;;;;;;;;;;;;;;;;5089750;27;19923;-72
2023/09/06 17:57:10;;;;;;;;;;;;;;;;;;5088341;28;20311;-72
2023/09/06 17:59:36;;;;;;;;;;;;;;;;;;5089045;28;19909;-73
2023/09/06 18:05:24;;;;;;;;;;;;;;;;;;5089823;27;20339;-71
2023/09/06 18:07:52;;;;;;;;;;;;;;;;;;5088193;28;19913;-71
2023/09/06 18:10:18;;;;;;;;;;;;;;;;;;5086946;28;19925;-72
2023/09/06 18:12:44;;;;;;;;;;;;;;;;;;5088302;28;19912;-71
2023/09/06 18:15:28;;;;;;;;;;;;;;;;;;5089316;27;19919;-72
2023/09/06 18:19:34;;;;;;;;;;;;;;;;;;5172812;27;19911;-73
2023/09/06 18:22:00;;;;;;;;;;;;;;;;;;5154320;27;20029;-71
2023/09/06 18:26:47;;;;;;;;;;;;;;;;;;5090028;27;19934;-71
2023/09/06 18:30:55;;;;;;;;;;;;;;;;;;5088767;27;19916;-71
2023/09/06 18:35:27;;;;;;;;;;;;;;;;;;5110128;27;19919;-71
2023/09/06 18:37:52;;;;;;;;;;;;;;;;;;5110029;28;19934;-70
2023/09/06 18:40:19;;;;;;;;;;;;;;;;;;5110441;28;20316;-70
2023/09/06 18:42:46;;;;;;;;;;;;;;;;;;5111502;28;19939;-70
2023/09/06 18:45:13;;;;;;;;;;;;;;;;;;5111249;28;19915;-70
2023/09/06 18:47:39;;;;;;;;;;;;;;;;;;5111425;28;20006;-70
2023/09/06 18:50:07;;;;;;;;;;;;;;;;;;5111630;28;19912;-70
2023/09/06 18:54:50;;;;;;;;;;;;;;;;;;5132541;27;19915;-71
2023/09/06 18:58:23;;;;;;;;;;;;;;;;;;5132566;27;19916;-71
2023/09/06 19:00:49;;;;;;;;;;;;;;;;;;5114143;28;20417;-70
2023/09/06 19:03:21;;;;;;;;;;;;;;;;;;5132406;28;19911;-71
2023/09/06 19:05:47;;;;;;;;;;;;;;;;;;5113335;28;20424;-71
2023/09/06 19:08:14;;;;;;;;;;;;;;;;;;5132286;28;19913;-71
2023/09/06 19:11:49;;;;;;;;;;;;;;;;;;5111655;27;20398;-71
2023/09/06 19:22:52;;;;;;;;;;;;;;;;;;5132588;27;20367;-71
2023/09/06 19:25:18;;;;;;;;;;;;;;;;;;5132291;28;19965;-71
2023/09/06 19:29:21;;;;;;;;;;;;;;;;;;5091489;27;20007;-70
2023/09/06 19:38:13;;;;;;;;;;;;;;;;;;5091535;27;20290;-70
2023/09/06 19:40:39;;;;;;;;;;;;;;;;;;5091345;28;20318;-71
2023/09/06 19:43:05;;;;;;;;;;;;;;;;;;5089708;28;19916;-73
2023/09/06 19:45:31;;;;;;;;;;;;;;;;;;5087854;28;19909;-72
2023/09/06 19:47:57;;;;;;;;;;;;;;;;;;5088736;28;19995;-73
2023/09/06 19:52:41;;;;;;;;;;;;;;;;;;5089188;28;20303;-72
2023/09/06 19:55:07;;;;;;;;;;;;;;;;;;5088977;28;19919;-72
2023/09/06 19:57:33;;;;;;;;;;;;;;;;;;5089929;28;20334;-71
2023/09/06 20:00:00;;;;;;;;;;;;;;;;;;5091251;28;19956;-72
2023/09/06 20:02:26;;;;;;;;;;;;;;;;;;5089337;28;19908;-72
2023/09/06 20:04:52;;;;;;;;;;;;;;;;;;5091160;28;19908;-72
2023/09/06 20:10:17;;;;;;;;;;;;;;;;;;5091288;27;19922;-70
2023/09/06 20:12:43;;;;;;;;;;;;;;;;;;5091212;28;20296;-70
2023/09/06 20:15:09;;;;;;;;;;;;;;;;;;5091296;28;19912;-71